createdAt,value
2022-12-15T00:00:00.707Z,88.57
2022-12-15T00:02:47.282Z,89.09
2022-12-15T00:05:32.559Z,89.19
2022-12-15T00:08:24.801Z,89.53
2022-12-15T00:11:10.017Z,90.20
2022-12-15T00:13:55.527Z,90.82
2022-12-15T00:16:41.156Z,90.59
2022-12-15T00:19:28.176Z,90.82
2022-12-15T00:22:13.639Z,91.21
2022-12-15T00:24:59.186Z,91.49
2022-12-15T00:27:44.591Z,90.80
2022-12-15T00:30:30.454Z,90.70
2022-12-15T00:33:15.741Z,90.60
2022-12-15T00:36:02.290Z,90.35
2022-12-15T00:38:43.590Z,90.68
2022-12-15T00:41:12.817Z,90.83
2022-12-15T00:43:40.659Z,91.20
2022-12-15T00:46:26.374Z,90.79
2022-12-15T00:48:54.243Z,91.46
2022-12-15T00:51:22.571Z,91.78
2022-12-15T00:54:11.860Z,91.78
2022-12-15T00:56:59.961Z,91.37
2022-12-15T00:59:45.416Z,91.54
2022-12-15T01:02:30.935Z,91.74
2022-12-15T01:05:16.592Z,91.96
2022-12-15T01:08:03.207Z,91.61
2022-12-15T01:10:48.617Z,90.95
2022-12-15T01:13:34.196Z,90.55
2022-12-15T01:16:19.778Z,91.32
2022-12-15T01:19:04.940Z,90.98
2022-12-15T01:21:33.333Z,90.62
2022-12-15T01:24:02.407Z,91.29
2022-12-15T01:26:30.138Z,91.77
2022-12-15T01:28:57.933Z,91.83
2022-12-15T01:31:25.660Z,91.88
2022-12-15T01:33:54.494Z,91.90
2022-12-15T01:36:22.192Z,91.77
2022-12-15T01:38:54.099Z,92.26
2022-12-15T01:41:22.924Z,92.49
2022-12-15T01:43:50.746Z,91.91
2022-12-15T01:46:21.043Z,91.37
2022-12-15T01:48:53.335Z,91.48
2022-12-15T01:51:27.825Z,91.82
2022-12-15T01:54:01.479Z,91.89
2022-12-15T01:56:37.718Z,91.95
2022-12-15T01:59:08.626Z,92.41
2022-12-15T02:01:36.680Z,92.09
2022-12-15T02:04:04.725Z,91.43
2022-12-15T02:06:32.478Z,91.24
2022-12-15T02:09:02.169Z,91.34
2022-12-15T02:11:45.651Z,92.44
2022-12-15T02:14:18.812Z,92.05
2022-12-15T02:17:03.010Z,91.68
2022-12-15T02:19:49.955Z,91.92
2022-12-15T02:22:28.304Z,91.69
2022-12-15T02:25:11.265Z,92.82
2022-12-15T02:27:56.535Z,93.11
2022-12-15T02:30:34.374Z,92.39
2022-12-15T02:33:11.320Z,94.83
2022-12-15T02:35:48.807Z,95.17
2022-12-15T02:38:16.650Z,94.56
2022-12-15T02:40:44.365Z,93.74
2022-12-15T02:43:12.382Z,93.66
2022-12-15T02:45:55.539Z,94.96
2022-12-15T02:48:30.626Z,95.42
2022-12-15T02:51:20.995Z,94.39
2022-12-15T02:54:07.887Z,93.67
2022-12-15T02:56:42.310Z,93.47
2022-12-15T02:59:15.894Z,94.02
2022-12-15T03:01:50.824Z,93.73
2022-12-15T03:04:20.261Z,94.62
2022-12-15T03:06:59.051Z,94.02
2022-12-15T03:09:28.796Z,95.26
2022-12-15T03:11:56.578Z,94.48
2022-12-15T03:14:25.410Z,93.89
2022-12-15T03:16:55.597Z,94.69
2022-12-15T03:19:24.034Z,94.48
2022-12-15T03:21:51.818Z,93.45
2022-12-15T03:24:19.789Z,93.40
2022-12-15T03:26:49.923Z,92.95
2022-12-15T03:29:18.035Z,93.20
2022-12-15T03:31:46.125Z,93.01
2022-12-15T03:34:18.964Z,92.91
2022-12-15T03:36:46.926Z,93.01
2022-12-15T03:39:14.773Z,92.83
2022-12-15T03:41:42.804Z,92.50
2022-12-15T03:44:10.681Z,92.70
2022-12-15T03:46:38.470Z,93.94
2022-12-15T03:49:06.852Z,93.67
2022-12-15T03:51:36.000Z,94.04
2022-12-15T03:54:03.770Z,93.53
2022-12-15T03:56:32.397Z,93.15
2022-12-15T03:59:00.181Z,93.01
2022-12-15T04:01:30.108Z,92.85
2022-12-15T04:04:01.201Z,92.75
2022-12-15T04:06:29.992Z,93.88
2022-12-15T04:08:59.294Z,94.28
2022-12-15T04:11:27.112Z,95.64
2022-12-15T04:13:55.027Z,95.84
2022-12-15T04:16:22.984Z,94.51
2022-12-15T04:19:10.903Z,93.91
2022-12-15T04:21:37.673Z,92.53
2022-12-15T04:24:24.995Z,92.10
2022-12-15T04:27:10.256Z,91.99
2022-12-15T04:29:55.665Z,94.98
2022-12-15T04:32:41.537Z,94.83
2022-12-15T04:35:27.248Z,93.92
2022-12-15T04:38:12.503Z,93.40
2022-12-15T04:40:59.249Z,93.54
2022-12-15T04:43:44.447Z,94.27
2022-12-15T04:46:29.870Z,93.74
2022-12-15T04:49:15.166Z,94.30
2022-12-15T04:52:00.088Z,94.36
2022-12-15T04:54:45.418Z,94.80
2022-12-15T04:57:32.088Z,93.60
2022-12-15T05:00:17.251Z,92.60
2022-12-15T05:03:02.733Z,92.44
2022-12-15T05:05:47.980Z,93.63
2022-12-15T05:08:33.355Z,95.67
2022-12-15T05:11:18.763Z,95.10
2022-12-15T05:14:05.498Z,93.84
2022-12-15T05:16:51.013Z,93.08
2022-12-15T05:19:36.112Z,92.32
2022-12-15T05:22:21.532Z,92.27
2022-12-15T05:25:06.577Z,92.89
2022-12-15T05:27:51.993Z,93.37
2022-12-15T05:30:38.800Z,93.51
2022-12-15T05:33:06.807Z,93.64
2022-12-15T05:35:34.527Z,93.35
2022-12-15T05:38:02.428Z,93.04
2022-12-15T05:40:30.257Z,93.24
2022-12-15T05:42:58.996Z,94.17
2022-12-15T05:45:28.662Z,93.48
2022-12-15T05:47:57.088Z,92.87
2022-12-15T05:50:24.876Z,93.24
2022-12-15T05:52:52.807Z,93.51
2022-12-15T05:55:20.583Z,94.54
2022-12-15T05:57:52.150Z,93.95
2022-12-15T06:00:20.436Z,92.72
2022-12-15T06:02:49.980Z,92.44
2022-12-15T06:05:18.328Z,92.54
2022-12-15T06:07:46.131Z,91.97
2022-12-15T06:10:13.999Z,91.44
2022-12-15T06:12:41.808Z,91.19
2022-12-15T06:15:10.407Z,92.14
2022-12-15T06:17:38.138Z,91.86
2022-12-15T06:20:08.555Z,92.36
2022-12-15T06:22:36.302Z,92.49
2022-12-15T06:25:04.312Z,92.37
2022-12-15T06:27:32.129Z,92.09
2022-12-15T06:29:59.869Z,92.31
2022-12-15T06:32:27.682Z,92.13
2022-12-15T06:34:55.465Z,92.13
2022-12-15T06:37:24.555Z,92.09
2022-12-15T06:39:52.433Z,92.37
2022-12-15T06:42:20.141Z,92.23
2022-12-15T06:44:47.885Z,91.83
2022-12-15T06:47:18.618Z,93.29
2022-12-15T06:49:46.363Z,93.39
2022-12-15T06:52:14.216Z,92.66
2022-12-15T06:54:43.447Z,91.72
2022-12-15T06:57:11.046Z,91.36
2022-12-15T06:59:39.192Z,90.99
2022-12-15T07:02:14.642Z,90.94
2022-12-15T07:04:42.624Z,90.86
2022-12-15T07:07:10.817Z,91.64
2022-12-15T07:09:38.598Z,91.77
2022-12-15T07:12:08.492Z,91.41
2022-12-15T07:14:36.229Z,91.28
2022-12-15T07:17:04.169Z,91.69
2022-12-15T07:19:31.981Z,92.15
2022-12-15T07:22:01.271Z,91.84
2022-12-15T07:24:29.017Z,91.81
2022-12-15T07:26:57.152Z,91.74
2022-12-15T07:29:26.362Z,91.71
2022-12-15T07:31:54.181Z,91.32
2022-12-15T07:34:21.980Z,92.32
2022-12-15T07:36:52.479Z,91.77
2022-12-15T07:39:21.166Z,91.13
2022-12-15T07:41:49.260Z,91.20
2022-12-15T07:44:17.501Z,91.26
2022-12-15T07:46:49.080Z,91.07
2022-12-15T07:49:17.316Z,91.39
2022-12-15T07:51:45.408Z,91.37
2022-12-15T07:54:14.052Z,91.36
2022-12-15T07:56:42.428Z,91.94
2022-12-15T07:59:10.345Z,91.19
2022-12-15T08:01:38.269Z,91.27
2022-12-15T08:04:07.660Z,90.31
2022-12-15T08:06:35.307Z,89.68
2022-12-15T08:09:03.386Z,89.75
2022-12-15T08:11:35.183Z,89.74
2022-12-15T08:14:05.459Z,89.48
2022-12-15T08:16:36.496Z,89.99
2022-12-15T08:19:05.774Z,90.55
2022-12-15T08:21:34.978Z,96.00
2022-12-15T08:24:02.991Z,97.27
2022-12-15T08:26:31.676Z,97.48
2022-12-15T08:29:31.992Z,96.38
2022-12-15T08:31:52.204Z,96.18
2022-12-15T08:34:20.547Z,93.58
2022-12-15T08:36:49.912Z,89.98
2022-12-15T08:39:17.557Z,89.01
2022-12-15T08:41:45.762Z,87.76
2022-12-15T08:44:13.627Z,86.82
2022-12-15T08:46:41.461Z,87.04
2022-12-15T08:49:09.805Z,88.44
2022-12-15T08:51:37.562Z,88.72
2022-12-15T08:54:06.771Z,89.15
2022-12-15T08:56:34.546Z,87.42
2022-12-15T08:59:03.519Z,86.42
2022-12-15T09:01:33.148Z,84.39
2022-12-15T09:04:02.061Z,83.24
2022-12-15T09:06:32.369Z,86.96
2022-12-15T09:09:02.513Z,84.32
2022-12-15T09:11:32.635Z,79.43
2022-12-15T09:14:00.482Z,77.18
2022-12-15T09:16:29.027Z,73.75
2022-12-15T09:18:58.697Z,67.48
2022-12-15T09:21:28.031Z,67.22
2022-12-15T09:24:00.418Z,69.80
2022-12-15T09:26:32.225Z,65.81
2022-12-15T09:29:01.795Z,65.02
2022-12-15T09:31:32.515Z,62.81
2022-12-15T09:34:01.782Z,61.06
2022-12-15T09:36:30.836Z,58.29
2022-12-15T09:38:59.290Z,54.88
2022-12-15T09:41:29.422Z,57.67
2022-12-15T09:44:01.118Z,54.70
2022-12-15T09:46:41.128Z,55.34
2022-12-15T09:49:16.122Z,55.17
2022-12-15T09:51:52.019Z,53.71
2022-12-15T09:54:22.507Z,55.74
2022-12-15T09:56:55.886Z,59.24
2022-12-15T09:59:33.770Z,58.85
2022-12-15T10:02:18.296Z,61.30
2022-12-15T10:04:55.650Z,60.31
2022-12-15T10:07:30.610Z,58.70
2022-12-15T10:09:58.457Z,58.38
2022-12-15T10:12:30.776Z,58.71
2022-12-15T10:15:10.111Z,63.76
2022-12-15T10:17:42.300Z,65.99
2022-12-15T10:20:18.907Z,64.09
2022-12-15T10:22:50.326Z,61.28
2022-12-15T10:25:29.446Z,58.25
2022-12-15T10:28:12.424Z,56.77
2022-12-15T10:30:50.377Z,54.53
2022-12-15T10:33:20.968Z,52.41
2022-12-15T10:35:49.709Z,54.06
2022-12-15T10:38:25.670Z,52.15
2022-12-15T10:40:57.311Z,50.37
2022-12-15T10:43:28.432Z,48.81
2022-12-15T10:46:08.297Z,47.96
2022-12-15T10:48:36.731Z,47.13
2022-12-15T10:51:22.275Z,45.02
2022-12-15T10:53:52.683Z,45.40
2022-12-15T10:56:32.732Z,45.10
2022-12-15T10:59:24.631Z,45.48
2022-12-15T11:01:54.308Z,44.63
2022-12-15T11:04:28.735Z,44.77
2022-12-15T11:07:00.566Z,43.82
2022-12-15T11:09:34.057Z,44.54
2022-12-15T11:12:19.927Z,45.20
2022-12-15T11:14:49.397Z,44.85
2022-12-15T11:17:22.317Z,43.50
2022-12-15T11:20:01.863Z,43.14
2022-12-15T11:22:40.914Z,44.61
2022-12-15T11:25:25.577Z,42.65
2022-12-15T11:27:57.373Z,43.98
2022-12-15T11:30:27.588Z,44.12
2022-12-15T11:33:00.210Z,44.99
2022-12-15T11:35:34.044Z,42.57
2022-12-15T11:38:14.080Z,44.60
2022-12-15T11:40:43.200Z,45.39
2022-12-15T11:43:24.374Z,44.51
2022-12-15T11:46:19.700Z,45.21
2022-12-15T11:49:03.595Z,43.85
2022-12-15T11:51:40.523Z,43.51
2022-12-15T11:54:16.696Z,42.47
2022-12-15T11:56:49.100Z,40.78
2022-12-15T11:59:51.078Z,42.68
2022-12-15T12:02:45.198Z,45.13
2022-12-15T12:05:30.779Z,45.05
2022-12-15T12:08:08.762Z,44.61
2022-12-15T12:10:41.269Z,43.69
2022-12-15T12:13:21.480Z,42.54
2022-12-15T12:15:58.506Z,43.36
2022-12-15T12:18:29.934Z,42.66
2022-12-15T12:21:05.156Z,44.27
2022-12-15T12:23:39.593Z,44.26
2022-12-15T12:26:13.504Z,45.12
2022-12-15T12:28:48.720Z,44.25
2022-12-15T12:31:27.835Z,45.13
2022-12-15T12:33:59.395Z,46.67
2022-12-15T12:36:28.680Z,45.95
2022-12-15T12:38:59.198Z,45.85
2022-12-15T12:41:37.417Z,48.05
2022-12-15T12:44:12.153Z,51.61
2022-12-15T12:46:44.266Z,53.72
2022-12-15T12:49:22.839Z,54.08
2022-12-15T12:51:58.605Z,55.80
2022-12-15T12:54:44.119Z,57.29
2022-12-15T12:57:31.596Z,58.24
2022-12-15T13:00:02.670Z,58.99
2022-12-15T13:03:16.334Z,59.21
2022-12-15T13:05:47.129Z,59.87
2022-12-15T13:08:51.056Z,60.82
2022-12-15T13:11:56.358Z,61.51
2022-12-15T13:14:46.695Z,62.41
2022-12-15T13:17:27.217Z,62.78
2022-12-15T13:20:28.550Z,63.08
2022-12-15T13:23:18.756Z,63.30
2022-12-15T13:25:53.681Z,63.47
2022-12-15T13:28:32.380Z,63.82
2022-12-15T13:31:15.819Z,64.36
2022-12-15T13:33:56.363Z,64.90
2022-12-15T13:36:54.722Z,64.81
2022-12-15T13:39:56.109Z,65.21
2022-12-15T13:42:38.741Z,65.54
2022-12-15T13:45:51.197Z,65.93
2022-12-15T13:48:38.423Z,66.26
2022-12-15T13:51:30.136Z,66.41
2022-12-15T13:54:03.007Z,66.83
2022-12-15T13:56:58.301Z,67.06
2022-12-15T13:59:45.483Z,67.38
2022-12-15T14:02:26.065Z,67.75
2022-12-15T14:05:10.526Z,67.07
2022-12-15T14:07:38.679Z,67.37
2022-12-15T14:10:16.867Z,67.99
2022-12-15T14:12:45.725Z,68.37
2022-12-15T14:15:17.640Z,68.81
2022-12-15T14:17:49.875Z,68.95
2022-12-15T14:20:21.111Z,69.59
2022-12-15T14:22:52.510Z,70.02
2022-12-15T14:25:23.170Z,70.18
2022-12-15T14:27:51.726Z,70.74
2022-12-15T14:30:29.296Z,70.53
2022-12-15T14:33:06.925Z,70.58
2022-12-15T14:35:38.501Z,70.99
2022-12-15T14:38:09.222Z,71.23
2022-12-15T14:40:38.757Z,71.97
2022-12-15T14:43:10.287Z,72.11
2022-12-15T14:45:39.530Z,72.83
2022-12-15T14:51:00.803Z,73.50
2022-12-15T14:53:32.822Z,74.00
2022-12-15T14:56:15.674Z,74.30
2022-12-15T14:58:43.640Z,74.45
2022-12-15T15:01:25.850Z,74.85
2022-12-15T15:04:04.124Z,75.25
2022-12-15T15:06:36.000Z,75.71
2022-12-15T15:09:21.107Z,76.15
2022-12-15T15:11:51.387Z,76.58
2022-12-15T15:14:23.657Z,76.86
2022-12-15T15:17:06.053Z,77.23
2022-12-15T15:19:39.620Z,77.63
2022-12-15T15:22:30.549Z,78.11
2022-12-15T15:24:58.374Z,78.15
2022-12-15T15:27:37.398Z,78.54
2022-12-15T15:30:17.255Z,78.57
2022-12-15T15:32:54.406Z,78.83
2022-12-15T15:35:23.326Z,79.73
2022-12-15T15:37:53.183Z,79.87
2022-12-15T15:40:21.004Z,80.35
2022-12-15T15:42:49.302Z,80.85
2022-12-15T15:45:17.244Z,80.94
2022-12-15T15:47:48.272Z,81.16
2022-12-15T15:50:22.209Z,81.82
2022-12-15T15:52:50.098Z,82.42
2022-12-15T15:55:28.331Z,82.10
2022-12-15T15:57:56.258Z,82.68
2022-12-15T16:00:26.197Z,83.12
2022-12-15T16:02:54.571Z,82.96
2022-12-15T16:05:23.911Z,83.78
2022-12-15T16:07:51.751Z,83.08
2022-12-15T16:10:20.883Z,83.02
2022-12-15T16:12:51.819Z,83.15
2022-12-15T16:15:21.926Z,83.33
2022-12-15T16:17:50.415Z,83.59
2022-12-15T16:20:21.201Z,83.58
2022-12-15T16:22:55.761Z,83.99
2022-12-15T16:25:33.116Z,83.58
2022-12-15T16:28:14.171Z,83.64
2022-12-15T16:30:43.140Z,83.54
2022-12-15T16:33:11.928Z,84.24
2022-12-15T16:35:40.387Z,84.24
2022-12-15T16:38:15.825Z,84.45
2022-12-15T16:40:43.979Z,84.95
2022-12-15T16:43:16.018Z,85.67
2022-12-15T16:45:45.774Z,85.41
2022-12-15T16:48:14.290Z,85.65
2022-12-15T16:50:43.998Z,85.67
2022-12-15T16:53:17.239Z,86.43
2022-12-15T16:55:46.191Z,86.50
2022-12-15T16:58:16.915Z,86.70
2022-12-15T17:00:45.767Z,86.90
2022-12-15T17:03:14.756Z,87.02
2022-12-15T17:05:44.776Z,87.26
2022-12-15T17:08:19.195Z,87.67
2022-12-15T17:10:48.349Z,88.52
2022-12-15T17:13:22.727Z,88.80
2022-12-15T17:15:50.616Z,89.43
2022-12-15T17:18:18.466Z,88.65
2022-12-15T17:20:46.331Z,88.27
2022-12-15T17:23:21.009Z,87.65
2022-12-15T17:26:21.150Z,87.40
2022-12-15T17:28:39.088Z,87.62
2022-12-15T17:31:06.987Z,87.69
2022-12-15T17:33:35.949Z,87.95
2022-12-15T17:36:12.865Z,88.28
2022-12-15T17:38:42.000Z,88.13
2022-12-15T17:41:23.637Z,88.20
2022-12-15T17:46:48.812Z,88.93
2022-12-15T17:49:16.944Z,89.23
2022-12-15T17:51:45.384Z,89.10
2022-12-15T17:54:17.006Z,89.08
2022-12-15T17:56:47.365Z,89.17
2022-12-15T17:59:16.706Z,90.41
2022-12-15T18:01:44.378Z,90.12
2022-12-15T18:04:12.659Z,90.98
2022-12-15T18:06:42.042Z,90.35
2022-12-15T18:09:14.071Z,90.30
2022-12-15T18:11:45.124Z,91.07
2022-12-15T18:14:14.755Z,90.62
2022-12-15T18:16:42.613Z,90.35
2022-12-15T18:19:10.487Z,90.22
2022-12-15T18:21:38.615Z,90.50
2022-12-15T18:24:13.206Z,90.36
2022-12-15T18:26:41.001Z,90.53
2022-12-15T18:29:14.411Z,90.28
2022-12-15T18:31:42.729Z,90.74
2022-12-15T18:34:13.666Z,90.89
2022-12-15T18:36:41.521Z,90.91
2022-12-15T18:39:18.085Z,91.02
2022-12-15T18:41:46.596Z,90.85
2022-12-15T18:44:22.535Z,90.71
2022-12-15T18:46:51.294Z,91.22
2022-12-15T18:49:21.553Z,91.79
2022-12-15T18:51:50.247Z,91.40
2022-12-15T18:54:19.760Z,91.21
2022-12-15T18:56:50.520Z,91.56
2022-12-15T18:59:20.877Z,92.42
2022-12-15T19:01:49.807Z,92.47
2022-12-15T19:04:17.818Z,91.69
2022-12-15T19:06:45.995Z,92.36
2022-12-15T19:09:17.766Z,91.06
2022-12-15T19:12:17.608Z,91.11
2022-12-15T19:14:47.741Z,91.64
2022-12-15T19:17:35.283Z,91.68
2022-12-15T19:20:22.303Z,92.75
2022-12-15T19:22:50.604Z,92.30
2022-12-15T19:25:25.508Z,91.07
2022-12-15T19:27:58.429Z,90.26
2022-12-15T19:30:28.964Z,90.14
2022-12-15T19:32:57.130Z,89.87
2022-12-15T19:35:25.375Z,89.97
2022-12-15T19:37:57.715Z,90.44
2022-12-15T19:40:30.125Z,91.04
2022-12-15T19:42:59.132Z,91.07
2022-12-15T19:45:30.127Z,91.22
2022-12-15T19:47:58.202Z,91.47
2022-12-15T19:50:28.797Z,91.76
2022-12-15T19:53:00.624Z,91.44
2022-12-15T19:55:32.505Z,90.99
2022-12-15T19:58:00.832Z,90.58
2022-12-15T20:00:29.967Z,91.17
2022-12-15T20:02:58.017Z,91.77
2022-12-15T20:05:26.720Z,91.96
2022-12-15T20:07:55.433Z,91.36
2022-12-15T20:10:32.311Z,90.56
2022-12-15T20:13:00.828Z,89.92
2022-12-15T20:15:30.045Z,90.03
2022-12-15T20:17:58.097Z,90.07
2022-12-15T20:20:27.872Z,90.53
2022-12-15T20:22:57.333Z,90.54
2022-12-15T20:25:28.479Z,90.55
2022-12-15T20:27:56.940Z,90.63
2022-12-15T20:30:27.118Z,91.21
2022-12-15T20:32:56.321Z,92.25
2022-12-15T20:35:23.952Z,92.36
2022-12-15T20:37:52.518Z,91.79
2022-12-15T20:40:23.687Z,91.64
2022-12-15T20:42:52.773Z,92.39
2022-12-15T20:45:23.165Z,92.36
2022-12-15T20:47:53.192Z,91.82
2022-12-15T20:50:29.306Z,91.29
2022-12-15T20:52:57.112Z,91.67
2022-12-15T20:55:25.026Z,91.23
2022-12-15T20:57:53.552Z,92.31
2022-12-15T21:00:22.634Z,92.35
2022-12-15T21:02:51.980Z,92.09
2022-12-15T21:05:22.271Z,91.10
2022-12-15T21:07:51.691Z,91.16
2022-12-15T21:10:21.318Z,91.81
2022-12-15T21:12:50.504Z,92.48
2022-12-15T21:15:20.909Z,92.51
2022-12-15T21:17:57.245Z,91.21
2022-12-15T21:20:39.619Z,90.99
2022-12-15T21:23:19.666Z,92.25
2022-12-15T21:25:48.249Z,91.58
2022-12-15T21:28:16.348Z,92.31
2022-12-15T21:30:44.792Z,92.07
2022-12-15T21:33:12.941Z,91.50
2022-12-15T21:35:42.360Z,91.21
2022-12-15T21:38:21.048Z,91.50
2022-12-15T21:40:48.863Z,91.13
2022-12-15T21:43:16.696Z,90.98
2022-12-15T21:45:44.473Z,91.18
2022-12-15T21:48:31.011Z,92.26
2022-12-15T21:50:59.045Z,92.26
2022-12-15T21:53:28.249Z,93.16
2022-12-15T21:55:57.452Z,93.40
2022-12-15T21:58:27.297Z,93.69
2022-12-15T22:00:55.207Z,92.40
2022-12-15T22:03:23.018Z,91.90
2022-12-15T22:05:50.811Z,92.12
2022-12-15T22:08:21.948Z,91.87
2022-12-15T22:10:52.927Z,91.63
2022-12-15T22:13:23.903Z,93.20
2022-12-15T22:15:51.959Z,92.80
2022-12-15T22:18:22.269Z,92.84
2022-12-15T22:20:52.381Z,93.24
2022-12-15T22:23:21.340Z,92.23
2022-12-15T22:25:55.985Z,92.55
2022-12-15T22:28:26.516Z,92.32
2022-12-15T22:30:55.891Z,93.20
2022-12-15T22:33:25.623Z,92.22
2022-12-15T22:35:54.915Z,92.06
2022-12-15T22:38:23.952Z,91.19
2022-12-15T22:40:55.488Z,90.98
2022-12-15T22:43:27.547Z,90.70
2022-12-15T22:45:56.310Z,91.02
2022-12-15T22:48:26.427Z,91.26
2022-12-15T22:50:54.257Z,91.51
2022-12-15T22:53:22.935Z,92.65
2022-12-15T22:55:51.041Z,93.51
2022-12-15T22:58:27.514Z,92.91
2022-12-15T23:00:57.695Z,92.88
2022-12-15T23:03:28.819Z,92.94
2022-12-15T23:05:58.555Z,93.68
2022-12-15T23:08:26.309Z,93.64
2022-12-15T23:11:11.565Z,92.51
2022-12-15T23:13:40.718Z,92.46
2022-12-15T23:16:21.408Z,92.35
2022-12-15T23:18:50.750Z,91.69
2022-12-15T23:21:21.016Z,91.72
2022-12-15T23:23:49.166Z,91.62
2022-12-15T23:26:19.017Z,91.26
2022-12-15T23:28:48.722Z,91.28
2022-12-15T23:31:17.066Z,90.86
2022-12-15T23:33:44.823Z,90.81
2022-12-15T23:36:13.156Z,91.61
2022-12-15T23:38:40.921Z,92.13
2022-12-15T23:41:08.656Z,91.51
2022-12-15T23:43:36.397Z,92.66
2022-12-15T23:46:07.582Z,92.56
2022-12-15T23:48:38.564Z,92.26
2022-12-15T23:51:08.882Z,92.26
2022-12-15T23:53:38.762Z,91.78
2022-12-15T23:56:09.549Z,92.45
2022-12-15T23:58:38.011Z,91.59
